Latest Weather Observations for Westmere

IDV60801

Issued at 8:32 pm EDT Thursday 21 February 2019 (issued every 10 minutes, with the page automatically refreshed every 10 minutes)

About weather observations | Map of weather stations | Latest weather observations for VIC | Other Formats
Station Details ID: 089112 Name: WESTMERE Lat: -37.71 Lon: 142.94 Height: 226.0 m
Data from the previous 72 hours. | See also: Recent months at Westmere
Date/Time
EDT
Temp
°C
App
Temp
°C
Dew
Point
°C
Rel
Hum
%
Delta-T
°C
Wind Press
QNH
hPa
Press
MSL
hPa
Rain since
9am
mm
Dir  Spd
km/h
Gust
km/h
Spd
kts
Gust
kts
21/08:30pm 15.8 11.4 8.8 63 3.6 S 22 30 12 16 1022.2 1021.5 0.0
21/08:00pm 17.3 13.0 7.9 54 4.8 SSW 20 24 11 13 1021.6 1021.0 0.0
21/07:30pm 18.6 14.3 7.7 49 5.6 S 20 26 11 14 1021.5 1020.9 0.0
21/07:00pm 19.4 16.0 7.5 46 6.1 S 15 20 8 11 1021.2 1020.5 0.0
21/06:30pm 19.6 15.5 7.7 46 6.2 SSW 19 26 10 14 1021.0 1020.3 0.0
21/06:00pm 20.6 16.3 7.9 44 6.6 SSW 20 30 11 16 1021.0 1020.3 0.0
21/05:30pm 20.7 15.7 8.0 44 6.7 S 24 33 13 18 1020.9 1020.2 0.0
21/05:00pm 21.3 16.6 7.9 42 7.0 S 22 32 12 17 1020.9 1020.2 0.0
21/04:30pm 21.2 16.5 7.8 42 7.0 S 22 32 12 17 1020.8 1020.1 0.0
21/04:00pm 21.3 16.9 7.5 41 7.2 S 20 30 11 16 1020.8 1020.1 0.0
21/03:30pm 22.0 17.6 7.4 39 7.6 S 20 35 11 19 1020.9 1020.2 0.0
21/03:00pm 21.3 17.1 7.5 41 7.2 S 19 28 10 15 1021.4 1020.8 0.0
21/02:30pm 21.1 16.8 8.0 43 6.9 S 20 32 11 17 1021.4 1020.8 0.0
21/02:00pm 19.5 15.3 8.2 48 5.9 S 20 33 11 18 1021.5 1020.9 0.0
21/01:30pm 20.3 15.8 8.6 47 6.2 S 22 32 12 17 1021.5 1020.9 0.0
21/01:00pm 20.1 15.3 8.8 48 6.0 S 24 35 13 19 1021.5 1020.9 0.0
21/12:30pm 18.8 14.4 7.3 47 5.9 S 20 48 11 26 1021.6 1021.0 0.0
21/12:00pm 18.9 14.6 7.0 46 6.0 S 19 32 10 17 1021.8 1021.1 0.0
21/11:30am 17.8 13.8 6.7 48 5.6 SSW 17 28 9 15 1021.8 1021.1 0.0
21/11:00am 17.2 13.3 7.0 51 5.1 S 17 28 9 15 1021.6 1021.0 0.0
21/10:30am 16.8 12.5 6.9 52 5.0 SSW 19 30 10 16 1021.5 1020.9 0.0
21/10:00am 16.3 12.2 8.0 58 4.2 S 19 26 10 14 1021.3 1020.7 0.0
21/09:30am 14.7 11.1 8.4 66 3.2 SSW 17 22 9 12 1021.1 1020.4 0.0
21/09:00am 14.4 11.8 9.4 72 2.6 SSW 13 17 7 9 1020.8 1020.1 0.0
21/08:30am 13.4 11.9 9.1 75 2.2 SW 7 13 4 7 1020.5 1019.8 0.0
21/08:00am 12.8 11.5 9.3 79 1.8 SW 6 7 3 4 1020.0 1019.3 0.0
21/07:30am 12.0 10.6 9.4 84 1.3 SW 7 11 4 6 1019.7 1019.0 0.0
21/07:00am 11.5 10.1 9.6 88 1.0 WSW 7 9 4 5 1019.3 1018.6 0.0
21/06:30am 11.2 10.1 9.8 91 0.7 WSW 6 7 3 4 1019.0 1018.3 0.0
21/06:00am 10.7 9.9 9.6 93 0.6 SW 4 4 2 2 1018.8 1018.1 0.0
21/05:30am 10.4 9.5 9.3 93 0.6 SW 4 6 2 3 1018.7 1018.0 0.0
21/05:00am 9.6 8.1 8.5 93 0.5 SW 6 6 3 3 1018.7 1018.0 0.0
21/04:30am 7.1 5.4 5.9 92 0.5 SW 4 4 2 2 1018.5 1017.8 0.0
21/04:00am 8.6 7.2 7.2 91 0.7 SW 4 4 2 2 1018.4 1017.7 0.0
21/03:30am 9.5 8.2 7.6 88 0.9 SW 4 6 2 3 1018.4 1017.7 0.0
21/03:00am 10.5 9.4 8.4 87 1.0 SW 4 6 2 3 1018.4 1017.7 0.0
21/02:30am 10.9 9.3 8.7 86 1.1 SW 7 7 4 4 1018.4 1017.7 0.0
21/02:00am 11.5 9.9 8.9 84 1.3 SW 7 7 4 4 1018.5 1017.8 0.0
21/01:30am 12.4 10.6 9.4 82 1.5 SW 9 13 5 7 1018.7 1018.0 0.0
21/01:00am 13.0 10.4 9.4 79 1.8 SW 13 19 7 10 1018.7 1018.0 0.0
21/12:30am 12.8 12.2 10.5 86 1.2 SW 4 7 2 4 1018.7 1018.0 0.0
21/12:00am 12.6 11.7 10.5 87 1.1 SW 6 6 3 3 1018.6 1017.9 0.0
 
Date/Time
EDT
Temp
°C
App
Temp
°C
Dew
Point
°C
Rel
Hum
%
Delta-T
°C
Wind Press
QNH
hPa
Press
MSL
hPa
Rain since
9am
mm
Dir  Spd
km/h
Gust
km/h
Spd
kts
Gust
kts
20/11:30pm 12.4 11.1 10.0 85 1.2 SW 7 9 4 5 1018.6 1017.9 0.0
20/11:00pm 12.4 10.7 9.8 84 1.3 SW 9 11 5 6 1018.6 1017.9 0.0
20/10:30pm 12.7 11.0 9.7 82 1.5 SW 9 11 5 6 1018.4 1017.7 0.0
20/10:00pm 13.1 10.8 10.3 83 1.5 SSW 13 15 7 8 1018.0 1017.3 0.0
20/09:30pm 13.9 10.9 10.5 80 1.8 SSW 17 24 9 13 1017.8 1017.1 0.0
20/09:00pm 14.7 11.2 10.1 74 2.4 SSW 19 24 10 13 1017.4 1016.6 0.0
20/08:30pm 15.8 11.4 10.3 70 2.9 SW 24 35 13 19 1017.0 1016.3 0.0
20/08:00pm 17.3 12.0 9.7 61 4.0 SSW 28 37 15 20 1016.5 1015.8 0.0
20/07:30pm 18.8 14.5 9.3 54 5.1 SSW 22 32 12 17 1016.2 1015.5 0.0
20/07:00pm 20.1 15.9 9.9 52 5.5 SW 22 33 12 18 1016.0 1015.3 0.0
20/06:30pm 20.2 15.8 8.8 48 6.1 SW 22 32 12 17 1015.7 1015.0 0.0
20/06:00pm 21.3 16.4 9.9 48 6.2 SW 26 35 14 19 1015.3 1014.6 0.0
20/05:30pm 20.6 16.1 10.1 51 5.7 SW 24 33 13 18 1015.0 1014.3 0.0
20/05:00pm 21.0 16.9 10.2 50 5.9 SW 22 32 12 17 1014.9 1014.2 0.0
20/04:30pm 22.5 18.5 10.3 46 6.7 WSW 22 33 12 18 1014.9 1014.2 0.0
20/04:00pm 21.3 16.8 9.9 48 6.2 SW 24 35 13 19 1015.2 1014.5 0.0
20/03:30pm 20.8 16.8 9.1 47 6.3 WSW 20 30 11 16 1015.2 1014.5 0.0
20/03:00pm 21.5 17.7 9.7 47 6.4 WSW 20 32 11 17 1015.3 1014.6 0.0
20/02:30pm 21.0 17.0 8.9 46 6.5 WSW 20 30 11 16 1015.4 1014.7 0.0
20/02:00pm 20.9 15.8 9.2 47 6.3 WSW 26 37 14 20 1015.4 1014.7 0.0
20/01:30pm 22.1 17.2 8.6 42 7.2 WSW 24 32 13 17 1015.4 1014.7 0.0
20/01:00pm 20.9 17.0 8.5 45 6.6 WSW 19 30 10 16 1015.6 1014.9 0.0
20/12:30pm 20.4 16.3 8.7 47 6.2 W 20 30 11 16 1015.8 1015.1 0.0
20/12:00pm 18.8 14.3 8.7 52 5.3 WSW 22 32 12 17 1016.2 1015.5 0.0
20/11:30am 18.4 14.6 8.9 54 5.0 W 19 26 10 14 1016.3 1015.6 0.0
20/11:00am 17.3 13.2 8.7 57 4.5 WSW 20 28 11 15 1016.3 1015.6 0.0
20/10:30am 16.4 12.2 8.4 59 4.1 WSW 20 30 11 16 1016.2 1015.5 0.0
20/10:00am 16.0 11.9 8.7 62 3.8 WSW 20 30 11 16 1016.1 1015.4 0.0
20/09:30am 15.7 11.5 8.2 61 3.8 W 20 30 11 16 1016.0 1015.3 0.0
20/09:00am 14.6 11.5 7.4 62 3.6 WNW 13 20 7 11 1015.8 1015.1 0.0
20/08:30am 14.0 11.7 7.5 65 3.2 WNW 9 13 5 7 1015.6 1014.9 0.0
20/08:00am 13.0 10.8 7.9 71 2.5 NW 9 11 5 6 1015.3 1014.6 0.0
20/07:30am 12.3 10.4 7.6 73 2.3 NW 7 11 4 6 1015.2 1014.5 0.0
20/07:00am 12.3 10.6 7.6 73 2.3 W 6 7 3 4 1015.1 1014.4 0.0
20/06:30am 11.1 10.3 8.0 81 1.5 WNW 2 6 1 3 1014.9 1014.2 0.0
20/06:00am 10.7 9.5 7.9 83 1.4 WNW 4 6 2 3 1015.0 1014.3 0.0
20/05:30am 9.9 8.3 7.8 87 1.0 WNW 6 7 3 4 1014.8 1014.1 0.0
20/05:00am 8.5 7.0 6.8 89 0.8 NW 4 7 2 4 1014.8 1014.1 0.0
20/04:30am 7.1 5.7 5.3 88 0.8 NW 2 6 1 3 1014.7 1014.0 0.0
20/04:00am 7.0 4.6 5.2 88 0.8 NW 7 9 4 5 1014.9 1014.2 0.0
20/03:30am 7.0 4.8 5.2 88 0.8 NW 6 6 3 3 1014.9 1014.2 0.0
20/03:00am 6.9 4.4 4.7 86 1.0 NW 7 7 4 4 1015.1 1014.4 0.0
20/02:30am 7.9 5.8 5.9 87 0.9 S 6 7 3 4 1015.2 1014.5 0.0
20/02:00am 7.3 5.1 5.1 86 1.0 S 6 7 3 4 1015.4 1014.7 0.0
20/01:30am 7.2 4.8 4.2 81 1.3 S 6 7 3 4 1015.8 1015.1 0.0
20/01:00am 8.5 6.3 5.4 81 1.4 S 6 6 3 3 1016.1 1015.4 0.0
20/12:30am 9.9 9.1 6.4 79 1.6 CALM 0 0 0 0 1016.1 1015.4 0.0
20/12:00am 10.2 9.4 6.4 77 1.8 CALM 0 0 0 0 1016.0 1015.3 0.0
 
Date/Time
EDT
Temp
°C
App
Temp
°C
Dew
Point
°C
Rel
Hum
%
Delta-T
°C
Wind Press
QNH
hPa
Press
MSL
hPa
Rain since
9am
mm
Dir  Spd
km/h
Gust
km/h
Spd
kts
Gust
kts
19/11:30pm 10.0 9.1 6.2 77 1.8 CALM 0 2 0 1 1015.9 1015.2 0.0
19/11:00pm 10.7 8.6 6.5 75 2.0 S 7 9 4 5 1016.0 1015.3 0.0
19/10:30pm 11.3 8.7 6.2 71 2.4 S 9 11 5 6 1015.8 1015.1 0.0
19/10:00pm 11.4 8.3 5.5 67 2.8 S 11 13 6 7 1015.8 1015.1 0.0
19/09:30pm 12.3 8.9 5.7 64 3.1 S 13 15 7 8 1015.2 1014.5 0.0
19/09:00pm 13.2 9.7 5.4 59 3.7 S 13 17 7 9 1014.8 1014.1 0.0
19/08:30pm 14.4 9.8 5.7 56 4.2 S 19 26 10 14 1014.6 1013.9 0.0
19/08:00pm 15.9 10.7 5.5 50 5.0 S 22 28 12 15 1014.2 1013.5 0.0
19/07:30pm 17.4 11.8 5.4 45 5.9 SSW 24 32 13 17 1014.1 1013.4 0.0
19/07:00pm 18.9 14.1 4.7 39 6.9 SSW 19 24 10 13 1013.7 1013.0 0.0
19/06:30pm 19.5 15.1 4.8 38 7.2 SSW 17 26 9 14 1013.5 1012.7 0.0
19/06:00pm 19.6 14.8 4.9 38 7.2 SSW 19 28 10 15 1013.3 1012.5 0.0
19/05:30pm 19.9 14.1 4.4 36 7.6 SW 24 37 13 20 1013.4 1012.6 0.0
19/05:00pm 20.5 15.6 4.1 34 8.0 WSW 19 37 10 20 1013.2 1012.4 0.0
19/04:30pm 20.3 15.3 3.5 33 8.1 SW 19 28 10 15 1013.1 1012.3 0.0
19/04:00pm 20.1 15.4 3.3 33 8.0 W 17 26 9 14 1013.1 1012.3 0.0
19/03:30pm 19.2 14.4 4.9 39 7.0 WSW 19 28 10 15 1013.5 1012.7 0.0
19/03:00pm 19.5 14.8 5.2 39 7.1 SW 19 28 10 15 1013.7 1013.0 0.0
19/02:30pm 19.0 14.4 5.5 41 6.7 SW 19 32 10 17 1013.9 1013.2 0.0
19/02:00pm 18.0 13.8 5.6 44 6.1 WSW 17 28 9 15 1013.8 1013.1 0.0
19/01:30pm 18.2 13.5 6.1 45 6.0 WSW 20 28 11 15 1013.8 1013.1 0.0
19/01:00pm 19.4 14.3 7.5 46 6.1 SW 24 35 13 19 1013.8 1013.1 0.0
19/12:30pm 17.4 13.1 7.2 51 5.2 SSW 19 30 10 16 1013.9 1013.2 0.0
19/12:00pm 17.6 12.9 5.2 44 6.0 WSW 19 30 10 16 1013.9 1013.2 0.0
19/11:30am 17.5 12.7 5.8 46 5.8 WSW 20 30 11 16 1014.1 1013.4 0.0
19/11:00am 15.5 11.3 7.3 58 4.1 WSW 19 24 10 13 1014.3 1013.6 0.0
19/10:30am 15.5 9.9 7.0 57 4.2 SW 26 33 14 18 1014.0 1013.3 0.0
19/10:00am 14.6 9.1 7.4 62 3.6 SW 26 39 14 21 1013.6 1012.8 0.0
19/09:30am 14.5 11.6 8.2 66 3.2 WSW 13 20 7 11 1013.5 1012.7 0.0
19/09:00am 12.6 10.4 7.9 73 2.3 W 9 13 5 7 1013.3 1012.5 0.0
19/08:30am 11.4 9.7 8.4 82 1.5 WNW 7 11 4 6 1013.0 1012.2 0.0
19/08:00am 10.0 8.4 7.9 87 1.0 NW 6 7 3 4 1012.8 1012.0 0.0
19/07:30am 9.0 7.0 7.3 89 0.8 WNW 7 9 4 5 1012.7 1011.9 0.0
19/07:00am 8.5 6.4 6.5 87 0.9 NW 7 9 4 5 1012.5 1011.7 0.0
19/06:30am 9.5 7.5 7.1 85 1.1 NW 7 7 4 4 1012.3 1011.6 0.0
19/06:00am 10.7 8.9 7.9 83 1.4 WNW 7 9 4 5 1012.1 1011.4 0.0
19/05:30am 10.7 9.1 8.1 84 1.3 WNW 6 9 3 5 1012.0 1011.3 0.0
19/05:00am 10.1 8.2 7.7 85 1.2 NW 7 7 4 4 1012.0 1011.3 0.0
19/04:30am 10.7 8.9 7.9 83 1.4 WNW 7 9 4 5 1012.0 1011.3 0.0
19/04:00am 10.9 9.8 8.3 84 1.3 W 4 7 2 4 1011.9 1011.2 0.0
19/03:30am 10.5 8.8 7.6 82 1.4 WSW 6 7 3 4 1011.9 1011.2 0.0
19/03:00am 11.2 9.4 7.9 80 1.6 WSW 7 13 4 7 1011.8 1011.1 0.0
19/02:30am 12.3 9.4 8.2 76 2.0 WSW 13 19 7 10 1011.9 1011.2 0.0
19/02:00am 12.7 9.4 8.2 74 2.3 WSW 15 22 8 12 1012.0 1011.3 0.0
19/01:30am 12.1 9.9 7.8 75 2.1 W 9 15 5 8 1012.0 1011.3 0.0
19/01:00am 11.9 10.0 7.4 74 2.2 WSW 7 11 4 6 1011.9 1011.2 0.0
19/12:30am 11.7 9.3 7.2 74 2.2 SW 9 15 5 8 1011.8 1011.1 0.0
19/12:00am 11.3 8.8 6.4 72 2.3 SW 9 11 5 6 1011.8 1011.1 0.0
 
Date/Time
EDT
Temp
°C
App
Temp
°C
Dew
Point
°C
Rel
Hum
%
Delta-T
°C
Wind Press
QNH
hPa
Press
MSL
hPa
Rain since
9am
mm
Dir  Spd
km/h
Gust
km/h
Spd
kts
Gust
kts
18/11:30pm 11.5 9.0 6.6 72 2.3 SW 9 11 5 6 1011.8 1011.1 0.0
18/11:00pm 11.8 9.7 6.5 70 2.5 SW 7 9 4 5 1011.7 1011.0 0.0
18/10:30pm 12.7 9.9 7.0 68 2.8 SW 11 15 6 8 1011.7 1011.0 0.0
18/10:00pm 13.0 9.8 7.0 67 2.9 SSW 13 19 7 10 1011.5 1010.8 0.0
18/09:30pm 13.7 9.4 6.8 63 3.4 SW 19 24 10 13 1011.2 1010.5 0.0
18/09:00pm 14.2 9.9 6.8 61 3.6 SW 19 26 10 14 1010.9 1010.2 0.0

Other formats

Comma delimited format used in spreadsheet applications
http://www.bom.gov.au/fwo/IDV60801/IDV60801.95840.axf

JavaScript Object Notation format (JSON) in row-major order
http://www.bom.gov.au/fwo/IDV60801/IDV60801.95840.json

Data quality

Most of these data are generated automatically and are frequently updated. Quality checks on data are not normally performed. It is possible for incorrect values to appear. Refer to information at About Latest Weather Observations and please check the disclaimer before using these data.